Terminal Aerodrome Forecast
Issued by NWS

Home | Current Version | Previous Version | Text Only | Print | Product List | Glossary On
Versions: 1 2 3 4 5 6 7 8 9 10 11 12 13 14 15 16
000
FTUS42 KMLB 251100
TAFTIX
TAF
KTIX 251136Z 2512/2612 31007KT P6SM BKN120
     FM251600 32010KT P6SM SCT010 SCT025 BKN250
     FM252200 36004KT P6SM SCT015 SCT025 BKN250
     FM260400 03003KT P6SM SCT010 SCT025=

USA.gov is the U.S. government's official web portal to all federal, state and local government web resources and services.